PWSweather.com
Personal Weather Stations
Station Observations
MORSE1
Massachusetts, West Townsend, MA 01474

MassachusettsWest Townsend, MA 01474

Lat: 42.676, Lon: -71.749

Elevation: 335

Station Type: Rainwise Mk III

Latest ConditionsUpdated 6:44:00 PM EST Sunday, Nov 18, 2018
Currently Today's Max Today's Min Today's Average
Temperature 33.0°F0.6°C 40.0°F4.4°C 31.9°F-0.1°C 35.2°F1.8°C
Dew Point 26.0°F-3.3°C 30.4°F-0.9°C 24.8°F-4.0°C 27.6°F-2.4°C
Winds Calm Calm 2.1 mph -3.4 kmh - - 0.3 mph 0.5 kmh
Wind Gusts -- 3.3 mph5.3 kmh - -
Humidity 75% 91% 61% 74%
Pressure 30.31 in1026.4 mb 30.38 in1028.8 mb 30.22 in1023.4 mb -
Precipitation - 0.16 in4.1 mm - -
Hour Temp Dew Point Humidity Winds Wind Gusts Pressure Precip Precip Rate Daily Precip Total
06:44 PM 33.0°F0.6°C 26.0°F-3.3°C 75% Calm Calm -- 30.31 in1026.4 mb 0.00 in0.0 mm 0.00 in0.0 mm 0.16 in4.1 mm
06:39 PM 33.0°F0.6°C 25.6°F-3.6°C 74% Calm Calm -- 30.31 in1026.4 mb 0.00 in0.0 mm 0.00 in0.0 mm 0.16 in4.1 mm
06:34 PM 33.0°F0.6°C 26.0°F-3.3°C 75% Calm Calm -- 30.31 in1026.4 mb 0.00 in0.0 mm 0.00 in0.0 mm 0.16 in4.1 mm
06:29 PM 33.0°F0.6°C 26.0°F-3.3°C 75% Calm Calm -- 30.31 in1026.4 mb 0.00 in0.0 mm 0.00 in0.0 mm 0.16 in4.1 mm
06:24 PM 33.0°F0.6°C 26.0°F-3.3°C 75% Calm Calm -- 30.31 in1026.4 mb 0.00 in0.0 mm 0.00 in0.0 mm 0.16 in4.1 mm
06:19 PM 34.0°F1.1°C 26.6°F-3.0°C 74% Calm Calm -- 30.31 in1026.4 mb 0.00 in0.0 mm 0.00 in0.0 mm 0.16 in4.1 mm
06:14 PM 34.0°F1.1°C 26.6°F-3.0°C 74% Calm Calm -- 30.31 in1026.4 mb 0.00 in0.0 mm 0.00 in0.0 mm 0.16 in4.1 mm
06:09 PM 34.0°F1.1°C 26.6°F-3.0°C 74% Calm Calm -- 30.31 in1026.4 mb 0.00 in0.0 mm 0.00 in0.0 mm 0.16 in4.1 mm
06:04 PM 34.0°F1.1°C 26.6°F-3.0°C 74% Calm Calm -- 30.31 in1026.4 mb 0.00 in0.0 mm 0.00 in0.0 mm 0.16 in4.1 mm
05:59 PM 34.0°F1.1°C 25.9°F-3.4°C 72% Calm Calm -- 30.31 in1026.4 mb 0.00 in0.0 mm 0.00 in0.0 mm 0.16 in4.1 mm
05:54 PM 34.0°F1.1°C 25.9°F-3.4°C 72% Calm Calm -- 30.31 in1026.4 mb 0.00 in0.0 mm 0.00 in0.0 mm 0.16 in4.1 mm
05:49 PM 34.0°F1.1°C 25.9°F-3.4°C 72% Calm Calm -- 30.31 in1026.4 mb 0.00 in0.0 mm 0.00 in0.0 mm 0.16 in4.1 mm
05:44 PM 34.0°F1.1°C 25.9°F-3.4°C 72% Calm Calm -- 30.31 in1026.4 mb 0.00 in0.0 mm 0.00 in0.0 mm 0.16 in4.1 mm
05:39 PM 34.0°F1.1°C 25.9°F-3.4°C 72% Calm Calm -- 30.31 in1026.4 mb 0.00 in0.0 mm 0.00 in0.0 mm 0.16 in4.1 mm
05:34 PM 34.0°F1.1°C 25.6°F-3.6°C 71% Calm Calm -- 30.31 in1026.4 mb 0.00 in0.0 mm 0.00 in0.0 mm 0.16 in4.1 mm
05:29 PM 34.0°F1.1°C 25.3°F-3.7°C 70% 0.4 mph W0.6 kmh W 1.5 mph2.4 kmh 30.31 in1026.4 mb 0.00 in0.0 mm 0.00 in0.0 mm 0.16 in4.1 mm
05:24 PM 34.0°F1.1°C 24.9°F-3.9°C 69% Calm Calm -- 30.31 in1026.4 mb 0.00 in0.0 mm 0.00 in0.0 mm 0.16 in4.1 mm
05:19 PM 35.0°F1.7°C 25.9°F-3.4°C 69% Calm Calm -- 30.31 in1026.4 mb 0.00 in0.0 mm 0.00 in0.0 mm 0.15 in3.8 mm
05:14 PM 35.0°F1.7°C 25.9°F-3.4°C 69% Calm Calm -- 30.31 in1026.4 mb 0.00 in0.0 mm 0.00 in0.0 mm 0.15 in3.8 mm
05:09 PM 35.0°F1.7°C 25.9°F-3.4°C 69% Calm Calm -- 30.31 in1026.4 mb 0.00 in0.0 mm 0.00 in0.0 mm 0.15 in3.8 mm
05:04 PM 35.0°F1.7°C 25.9°F-3.4°C 69% Calm Calm 0.3 mph0.5 kmh 30.31 in1026.4 mb 0.00 in0.0 mm 0.00 in0.0 mm 0.15 in3.8 mm
04:59 PM 35.0°F1.7°C 25.9°F-3.4°C 69% Calm Calm 0.5 mph0.8 kmh 30.31 in1026.4 mb 0.00 in0.0 mm 0.00 in0.0 mm 0.15 in3.8 mm
04:54 PM 35.0°F1.7°C 25.5°F-3.6°C 68% Calm Calm -- 30.31 in1026.4 mb 0.00 in0.0 mm 0.00 in0.0 mm 0.15 in3.8 mm
04:49 PM 35.0°F1.7°C 25.5°F-3.6°C 68% Calm Calm -- 30.31 in1026.4 mb 0.00 in0.0 mm 0.00 in0.0 mm 0.15 in3.8 mm
04:44 PM 35.0°F1.7°C 25.5°F-3.6°C 68% Calm Calm -- 30.31 in1026.4 mb 0.00 in0.0 mm 0.00 in0.0 mm 0.15 in3.8 mm
04:39 PM 36.0°F2.2°C 26.1°F-3.3°C 67% Calm Calm 0.3 mph0.5 kmh 30.31 in1026.4 mb 0.00 in0.0 mm 0.00 in0.0 mm 0.15 in3.8 mm
04:34 PM 36.0°F2.2°C 26.1°F-3.3°C 67% 1.1 mph WSW1.8 kmh WSW 2.3 mph3.7 kmh 30.31 in1026.4 mb 0.00 in0.0 mm 0.00 in0.0 mm 0.15 in3.8 mm
04:29 PM 36.0°F2.2°C 26.1°F-3.3°C 67% 1.3 mph W2.1 kmh W 2.8 mph4.5 kmh 30.31 in1026.4 mb 0.00 in0.0 mm 0.00 in0.0 mm 0.15 in3.8 mm
04:24 PM 36.0°F2.2°C 26.5°F-3.1°C 68% 0.3 mph W0.5 kmh W 0.8 mph1.3 kmh 30.31 in1026.4 mb 0.00 in0.0 mm 0.00 in0.0 mm 0.15 in3.8 mm
04:19 PM 36.0°F2.2°C 26.5°F-3.1°C 68% 0.7 mph WSW1.1 kmh WSW 1.8 mph2.9 kmh 30.31 in1026.4 mb 0.00 in0.0 mm 0.00 in0.0 mm 0.15 in3.8 mm
04:14 PM 36.0°F2.2°C 26.5°F-3.1°C 68% Calm Calm 0.5 mph0.8 kmh 30.31 in1026.4 mb 0.00 in0.0 mm 0.00 in0.0 mm 0.15 in3.8 mm
04:09 PM 36.0°F2.2°C 26.5°F-3.1°C 68% Calm Calm 0.3 mph0.5 kmh 30.31 in1026.4 mb 0.00 in0.0 mm 0.00 in0.0 mm 0.15 in3.8 mm
04:04 PM 36.0°F2.2°C 26.1°F-3.3°C 67% Calm Calm 0.5 mph0.8 kmh 30.31 in1026.4 mb 0.00 in0.0 mm 0.00 in0.0 mm 0.15 in3.8 mm
03:59 PM 37.0°F2.8°C 27.1°F-2.7°C 67% 0.7 mph WNW1.1 kmh WNW 1.8 mph2.9 kmh 30.31 in1026.4 mb 0.00 in0.0 mm 0.00 in0.0 mm 0.15 in3.8 mm
03:54 PM 37.0°F2.8°C 26.7°F-2.9°C 66% Calm Calm 0.3 mph0.5 kmh 30.31 in1026.4 mb 0.00 in0.0 mm 0.00 in0.0 mm 0.15 in3.8 mm
03:49 PM 37.0°F2.8°C 26.7°F-2.9°C 66% Calm Calm 0.3 mph0.5 kmh 30.31 in1026.4 mb 0.00 in0.0 mm 0.00 in0.0 mm 0.15 in3.8 mm
03:44 PM 37.0°F2.8°C 26.7°F-2.9°C 66% 0.5 mph WSW0.8 kmh WSW 1.5 mph2.4 kmh 30.31 in1026.4 mb 0.00 in0.0 mm 0.00 in0.0 mm 0.15 in3.8 mm
03:39 PM 37.0°F2.8°C 26.7°F-2.9°C 66% 0.5 mph WSW0.8 kmh WSW 1.8 mph2.9 kmh 30.31 in1026.4 mb 0.00 in0.0 mm 0.00 in0.0 mm 0.15 in3.8 mm
03:34 PM 37.0°F2.8°C 26.7°F-2.9°C 66% Calm Calm -- 30.31 in1026.4 mb 0.00 in0.0 mm 0.00 in0.0 mm 0.15 in3.8 mm
03:29 PM 37.0°F2.8°C 26.7°F-2.9°C 66% Calm Calm -- 30.31 in1026.4 mb 0.00 in0.0 mm 0.00 in0.0 mm 0.15 in3.8 mm
03:24 PM 37.9°F3.3°C 27.2°F-2.7°C 65% 0.2 mph WNW0.3 kmh WNW 0.8 mph1.3 kmh 30.31 in1026.4 mb 0.00 in0.0 mm 0.00 in0.0 mm 0.15 in3.8 mm
03:19 PM 38.0°F3.3°C 27.3°F-2.6°C 65% 0.7 mph W1.1 kmh W 2.3 mph3.7 kmh 30.31 in1026.4 mb 0.00 in0.0 mm 0.00 in0.0 mm 0.15 in3.8 mm
03:14 PM 38.0°F3.3°C 27.3°F-2.6°C 65% 0.1 mph W0.2 kmh W 0.8 mph1.3 kmh 30.31 in1026.4 mb 0.00 in0.0 mm 0.00 in0.0 mm 0.15 in3.8 mm
03:09 PM 37.9°F3.3°C 26.8°F-2.9°C 64% 0.6 mph WNW1.0 kmh WNW 2.5 mph4.0 kmh 30.31 in1026.4 mb 0.00 in0.0 mm 0.00 in0.0 mm 0.15 in3.8 mm
03:04 PM 38.0°F3.3°C 27.7°F-2.4°C 66% 0.1 mph WNW0.2 kmh WNW 0.3 mph0.5 kmh 30.31 in1026.4 mb 0.00 in0.0 mm 0.00 in0.0 mm 0.15 in3.8 mm
02:59 PM 38.0°F3.3°C 27.7°F-2.4°C 66% Calm Calm -- 30.31 in1026.4 mb 0.00 in0.0 mm 0.00 in0.0 mm 0.14 in3.6 mm
02:54 PM 38.0°F3.3°C 27.3°F-2.6°C 65% Calm Calm 0.3 mph0.5 kmh 30.31 in1026.4 mb 0.00 in0.0 mm 0.00 in0.0 mm 0.14 in3.6 mm
02:49 PM 39.0°F3.9°C 28.2°F-2.1°C 65% Calm Calm -- 30.31 in1026.4 mb 0.00 in0.0 mm 0.00 in0.0 mm 0.14 in3.6 mm
02:44 PM 39.0°F3.9°C 28.2°F-2.1°C 65% Calm Calm -- 30.31 in1026.4 mb 0.00 in0.0 mm 0.00 in0.0 mm 0.14 in3.6 mm
02:39 PM 39.0°F3.9°C 28.2°F-2.1°C 65% Calm Calm -- 30.30 in1026.1 mb 0.00 in0.0 mm 0.00 in0.0 mm 0.14 in3.6 mm
02:34 PM 39.0°F3.9°C 28.6°F-1.9°C 66% 0.3 mph WNW0.5 kmh WNW 1.0 mph1.6 kmh 30.31 in1026.4 mb 0.00 in0.0 mm 0.00 in0.0 mm 0.14 in3.6 mm
02:29 PM 39.0°F3.9°C 28.6°F-1.9°C 66% Calm Calm -- 30.31 in1026.4 mb 0.00 in0.0 mm 0.00 in0.0 mm 0.14 in3.6 mm
02:24 PM 39.0°F3.9°C 28.6°F-1.9°C 66% 0.8 mph WNW1.3 kmh WNW 2.3 mph3.7 kmh 30.31 in1026.4 mb 0.00 in0.0 mm 0.00 in0.0 mm 0.14 in3.6 mm
02:19 PM 39.0°F3.9°C 28.6°F-1.9°C 66% Calm Calm 0.3 mph0.5 kmh 30.31 in1026.4 mb 0.00 in0.0 mm 0.00 in0.0 mm 0.13 in3.3 mm
02:14 PM 39.0°F3.9°C 28.2°F-2.1°C 65% 0.2 mph SSE0.3 kmh SSE 0.8 mph1.3 kmh 30.31 in1026.4 mb 0.00 in0.0 mm 0.00 in0.0 mm 0.13 in3.3 mm
02:09 PM 39.0°F3.9°C 28.2°F-2.1°C 65% 0.1 mph SSE0.2 kmh SSE 0.5 mph0.8 kmh 30.31 in1026.4 mb 0.00 in0.0 mm 0.00 in0.0 mm 0.13 in3.3 mm
02:04 PM 39.0°F3.9°C 27.9°F-2.3°C 64% 0.2 mph E0.3 kmh E 0.8 mph1.3 kmh 30.31 in1026.4 mb 0.00 in0.0 mm 0.00 in0.0 mm 0.13 in3.3 mm
01:59 PM 39.0°F3.9°C 27.9°F-2.3°C 64% Calm Calm -- 30.31 in1026.4 mb 0.00 in0.0 mm 0.00 in0.0 mm 0.13 in3.3 mm
01:54 PM 39.0°F3.9°C 27.9°F-2.3°C 64% 0.1 mph ENE0.2 kmh ENE 0.5 mph0.8 kmh 30.31 in1026.4 mb 0.00 in0.0 mm 0.00 in0.0 mm 0.13 in3.3 mm
01:49 PM 39.0°F3.9°C 27.9°F-2.3°C 64% 0.4 mph ENE0.6 kmh ENE 1.0 mph1.6 kmh 30.31 in1026.4 mb 0.00 in0.0 mm 0.00 in0.0 mm 0.13 in3.3 mm
01:44 PM 39.0°F3.9°C 27.9°F-2.3°C 64% Calm Calm -- 30.32 in1026.8 mb 0.00 in0.0 mm 0.00 in0.0 mm 0.12 in3.0 mm
01:39 PM 39.0°F3.9°C 27.9°F-2.3°C 64% 0.1 mph SSW0.2 kmh SSW 0.8 mph1.3 kmh 30.33 in1027.1 mb 0.00 in0.0 mm 0.00 in0.0 mm 0.12 in3.0 mm
01:34 PM 39.0°F3.9°C 27.9°F-2.3°C 64% 0.4 mph S0.6 kmh S 1.0 mph1.6 kmh 30.32 in1026.8 mb 0.00 in0.0 mm 0.00 in0.0 mm 0.12 in3.0 mm
01:29 PM 39.0°F3.9°C 27.9°F-2.3°C 64% Calm Calm -- 30.32 in1026.8 mb 0.00 in0.0 mm 0.00 in0.0 mm 0.12 in3.0 mm
01:24 PM 39.0°F3.9°C 27.9°F-2.3°C 64% 1.6 mph WNW2.6 kmh WNW 3.0 mph4.8 kmh 30.33 in1027.1 mb 0.00 in0.0 mm 0.00 in0.0 mm 0.11 in2.8 mm
01:19 PM 39.0°F3.9°C 28.2°F-2.1°C 65% Calm Calm -- 30.31 in1026.4 mb 0.00 in0.0 mm 0.00 in0.0 mm 0.11 in2.8 mm
01:14 PM 39.0°F3.9°C 27.9°F-2.3°C 64% 0.2 mph WSW0.3 kmh WSW 0.5 mph0.8 kmh 30.31 in1026.4 mb 0.00 in0.0 mm 0.00 in0.0 mm 0.11 in2.8 mm
01:09 PM 39.0°F3.9°C 27.5°F-2.5°C 63% 0.3 mph SSW0.5 kmh SSW 1.3 mph2.1 kmh 30.32 in1026.8 mb 0.00 in0.0 mm 0.00 in0.0 mm 0.11 in2.8 mm
01:04 PM 38.9°F3.8°C 26.6°F-3.0°C 61% 0.5 mph SSW0.8 kmh SSW 1.3 mph2.1 kmh 30.32 in1026.8 mb 0.00 in0.0 mm 0.00 in0.0 mm 0.11 in2.8 mm
12:59 PM 39.0°F3.9°C 27.1°F-2.7°C 62% 0.1 mph SSW0.2 kmh SSW 0.5 mph0.8 kmh 30.32 in1026.8 mb 0.00 in0.0 mm 0.00 in0.0 mm 0.11 in2.8 mm
12:54 PM 39.0°F3.9°C 27.5°F-2.5°C 63% 0.4 mph WNW0.6 kmh WNW 1.8 mph2.9 kmh 30.33 in1027.1 mb 0.00 in0.0 mm 0.00 in0.0 mm 0.11 in2.8 mm
12:49 PM 39.0°F3.9°C 27.5°F-2.5°C 63% 0.3 mph WNW0.5 kmh WNW 0.8 mph1.3 kmh 30.33 in1027.1 mb 0.00 in0.0 mm 0.00 in0.0 mm 0.10 in2.5 mm
12:44 PM 39.0°F3.9°C 27.5°F-2.5°C 63% 0.1 mph SSE0.2 kmh SSE 0.5 mph0.8 kmh 30.33 in1027.1 mb 0.00 in0.0 mm 0.00 in0.0 mm 0.10 in2.5 mm
12:39 PM 39.0°F3.9°C 27.1°F-2.7°C 62% 0.1 mph SSE0.2 kmh SSE 0.5 mph0.8 kmh 30.33 in1027.1 mb 0.00 in0.0 mm 0.00 in0.0 mm 0.10 in2.5 mm
12:34 PM 40.0°F4.4°C 28.0°F-2.2°C 62% 0.4 mph ESE0.6 kmh ESE 1.5 mph2.4 kmh 30.33 in1027.1 mb 0.00 in0.0 mm 0.00 in0.0 mm 0.10 in2.5 mm
12:29 PM 40.0°F4.4°C 27.7°F-2.4°C 61% 1.9 mph SSW3.1 kmh SSW 3.3 mph5.3 kmh 30.33 in1027.1 mb 0.00 in0.0 mm 0.00 in0.0 mm 0.09 in2.3 mm
12:24 PM 40.0°F4.4°C 28.0°F-2.2°C 62% 0.1 mph NNE0.2 kmh NNE 0.3 mph0.5 kmh 30.34 in1027.4 mb 0.00 in0.0 mm 0.00 in0.0 mm 0.09 in2.3 mm
12:19 PM 40.0°F4.4°C 28.4°F-2.0°C 63% 1.6 mph WNW2.6 kmh WNW 3.0 mph4.8 kmh 30.34 in1027.4 mb 0.00 in0.0 mm 0.00 in0.0 mm 0.09 in2.3 mm
12:14 PM 39.0°F3.9°C 27.5°F-2.5°C 63% 0.6 mph WNW1.0 kmh WNW 2.0 mph3.2 kmh 30.34 in1027.4 mb 0.00 in0.0 mm 0.00 in0.0 mm 0.09 in2.3 mm
12:09 PM 39.0°F3.9°C 27.5°F-2.5°C 63% 0.1 mph E0.2 kmh E 0.5 mph0.8 kmh 30.33 in1027.1 mb 0.00 in0.0 mm 0.00 in0.0 mm 0.08 in2.0 mm
12:04 PM 39.0°F3.9°C 27.1°F-2.7°C 62% 0.9 mph E1.4 kmh E 1.3 mph2.1 kmh 30.34 in1027.4 mb 0.00 in0.0 mm 0.00 in0.0 mm 0.08 in2.0 mm
11:59 AM 39.0°F3.9°C 26.7°F-2.9°C 61% Calm Calm 0.3 mph0.5 kmh 30.34 in1027.4 mb 0.00 in0.0 mm 0.00 in0.0 mm 0.08 in2.0 mm
11:54 AM 39.0°F3.9°C 26.7°F-2.9°C 61% 0.6 mph ENE1.0 kmh ENE 1.8 mph2.9 kmh 30.35 in1027.8 mb 0.00 in0.0 mm 0.00 in0.0 mm 0.07 in1.8 mm
11:49 AM 40.0°F4.4°C 28.0°F-2.2°C 62% 1.0 mph WSW1.6 kmh WSW 2.3 mph3.7 kmh 30.35 in1027.8 mb 0.00 in0.0 mm 0.00 in0.0 mm 0.07 in1.8 mm
11:44 AM 39.0°F3.9°C 27.1°F-2.7°C 62% Calm Calm -- 30.35 in1027.8 mb 0.00 in0.0 mm 0.00 in0.0 mm 0.07 in1.8 mm
11:39 AM 39.0°F3.9°C 27.1°F-2.7°C 62% 0.1 mph WSW0.2 kmh WSW 0.5 mph0.8 kmh 30.35 in1027.8 mb 0.00 in0.0 mm 0.00 in0.0 mm 0.07 in1.8 mm
11:34 AM 39.0°F3.9°C 27.1°F-2.7°C 62% 0.5 mph WSW0.8 kmh WSW 1.0 mph1.6 kmh 30.36 in1028.1 mb 0.00 in0.0 mm 0.00 in0.0 mm 0.06 in1.5 mm
11:29 AM 38.9°F3.8°C 27.0°F-2.8°C 62% 0.8 mph W1.3 kmh W 1.5 mph2.4 kmh 30.36 in1028.1 mb 0.00 in0.0 mm 0.00 in0.0 mm 0.06 in1.5 mm
11:24 AM 38.0°F3.3°C 26.5°F-3.1°C 63% 1.5 mph W2.4 kmh W 2.8 mph4.5 kmh 30.36 in1028.1 mb 0.00 in0.0 mm 0.00 in0.0 mm 0.06 in1.5 mm
11:19 AM 38.0°F3.3°C 26.9°F-2.8°C 64% 0.7 mph WNW1.1 kmh WNW 1.0 mph1.6 kmh 30.36 in1028.1 mb 0.00 in0.0 mm 0.00 in0.0 mm 0.05 in1.3 mm
11:14 AM 38.0°F3.3°C 26.5°F-3.1°C 63% 0.2 mph WNW0.3 kmh WNW 1.0 mph1.6 kmh 30.36 in1028.1 mb 0.00 in0.0 mm 0.00 in0.0 mm 0.05 in1.3 mm
11:09 AM 38.0°F3.3°C 26.9°F-2.8°C 64% Calm Calm -- 30.36 in1028.1 mb 0.00 in0.0 mm 0.00 in0.0 mm 0.05 in1.3 mm
11:04 AM 38.0°F3.3°C 27.3°F-2.6°C 65% 0.3 mph WSW0.5 kmh WSW 1.5 mph2.4 kmh 30.36 in1028.1 mb 0.00 in0.0 mm 0.00 in0.0 mm 0.05 in1.3 mm
10:59 AM 38.0°F3.3°C 27.3°F-2.6°C 65% Calm Calm -- 30.36 in1028.1 mb 0.00 in0.0 mm 0.00 in0.0 mm 0.05 in1.3 mm
10:54 AM 38.0°F3.3°C 26.5°F-3.1°C 63% Calm Calm 0.3 mph0.5 kmh 30.37 in1028.4 mb 0.00 in0.0 mm 0.00 in0.0 mm 0.05 in1.3 mm
10:49 AM 37.0°F2.8°C 26.0°F-3.3°C 64% Calm Calm 0.5 mph0.8 kmh 30.37 in1028.4 mb 0.00 in0.0 mm 0.00 in0.0 mm 0.04 in1.0 mm
10:44 AM 37.0°F2.8°C 26.3°F-3.2°C 65% 0.2 mph SSW0.3 kmh SSW 0.5 mph0.8 kmh 30.37 in1028.4 mb 0.00 in0.0 mm 0.00 in0.0 mm 0.04 in1.0 mm
10:39 AM 37.0°F2.8°C 26.0°F-3.3°C 64% Calm Calm -- 30.37 in1028.4 mb 0.00 in0.0 mm 0.00 in0.0 mm 0.04 in1.0 mm
10:34 AM 38.0°F3.3°C 26.2°F-3.2°C 62% 0.3 mph E0.5 kmh E 0.8 mph1.3 kmh 30.37 in1028.4 mb 0.00 in0.0 mm 0.00 in0.0 mm 0.04 in1.0 mm
10:29 AM 38.0°F3.3°C 25.8°F-3.4°C 61% Calm Calm -- 30.37 in1028.4 mb 0.00 in0.0 mm 0.00 in0.0 mm 0.04 in1.0 mm
10:24 AM 38.0°F3.3°C 26.2°F-3.2°C 62% Calm Calm -- 30.37 in1028.4 mb 0.00 in0.0 mm 0.00 in0.0 mm 0.04 in1.0 mm
10:19 AM 38.0°F3.3°C 26.9°F-2.8°C 64% 1.0 mph N1.6 kmh N 1.8 mph2.9 kmh 30.37 in1028.4 mb 0.00 in0.0 mm 0.00 in0.0 mm 0.04 in1.0 mm
10:14 AM 38.0°F3.3°C 27.3°F-2.6°C 65% 1.0 mph NNW1.6 kmh NNW 1.8 mph2.9 kmh 30.37 in1028.4 mb 0.00 in0.0 mm 0.00 in0.0 mm 0.04 in1.0 mm
10:09 AM 37.0°F2.8°C 26.0°F-3.3°C 64% Calm Calm -- 30.38 in1028.8 mb 0.00 in0.0 mm 0.00 in0.0 mm 0.03 in0.8 mm
10:04 AM 37.0°F2.8°C 25.2°F-3.8°C 62% Calm Calm -- 30.38 in1028.8 mb 0.00 in0.0 mm 0.00 in0.0 mm 0.03 in0.8 mm
09:59 AM 37.0°F2.8°C 24.8°F-4.0°C 61% 0.3 mph NNE0.5 kmh NNE 0.8 mph1.3 kmh 30.38 in1028.8 mb 0.00 in0.0 mm 0.00 in0.0 mm 0.03 in0.8 mm
09:54 AM 37.0°F2.8°C 24.8°F-4.0°C 61% 0.9 mph NNE1.4 kmh NNE 2.3 mph3.7 kmh 30.38 in1028.8 mb 0.00 in0.0 mm 0.00 in0.0 mm 0.03 in0.8 mm
09:49 AM 37.0°F2.8°C 25.2°F-3.8°C 62% Calm Calm 0.3 mph0.5 kmh 30.37 in1028.4 mb 0.00 in0.0 mm 0.00 in0.0 mm 0.03 in0.8 mm
09:44 AM 37.0°F2.8°C 26.0°F-3.3°C 64% Calm Calm -- 30.37 in1028.4 mb 0.00 in0.0 mm 0.00 in0.0 mm 0.03 in0.8 mm
09:39 AM 37.0°F2.8°C 26.3°F-3.2°C 65% 0.1 mph NNE0.2 kmh NNE 0.8 mph1.3 kmh 30.37 in1028.4 mb 0.00 in0.0 mm 0.00 in0.0 mm 0.03 in0.8 mm
09:34 AM 36.0°F2.2°C 25.8°F-3.4°C 66% 0.5 mph NNE0.8 kmh NNE 0.8 mph1.3 kmh 30.37 in1028.4 mb 0.00 in0.0 mm 0.00 in0.0 mm 0.03 in0.8 mm
09:29 AM 36.0°F2.2°C 25.8°F-3.4°C 66% 0.6 mph W1.0 kmh W 1.8 mph2.9 kmh 30.37 in1028.4 mb 0.00 in0.0 mm 0.00 in0.0 mm 0.03 in0.8 mm
09:24 AM 35.0°F1.7°C 25.2°F-3.8°C 67% 0.8 mph NNW1.3 kmh NNW 1.8 mph2.9 kmh 30.37 in1028.4 mb 0.00 in0.0 mm 0.00 in0.0 mm 0.03 in0.8 mm
09:19 AM 35.0°F1.7°C 25.5°F-3.6°C 68% 1.9 mph NNW3.1 kmh NNW 2.8 mph4.5 kmh 30.37 in1028.4 mb 0.00 in0.0 mm 0.00 in0.0 mm 0.03 in0.8 mm
09:14 AM 35.0°F1.7°C 25.9°F-3.4°C 69% 2.1 mph NNW3.4 kmh NNW 2.8 mph4.5 kmh 30.37 in1028.4 mb 0.00 in0.0 mm 0.00 in0.0 mm 0.03 in0.8 mm
09:09 AM 34.0°F1.1°C 24.9°F-3.9°C 69% 0.5 mph WNW0.8 kmh WNW 1.5 mph2.4 kmh 30.37 in1028.4 mb 0.00 in0.0 mm 0.00 in0.0 mm 0.03 in0.8 mm
09:04 AM 33.9°F1.1°C 24.8°F-4.0°C 69% 1.4 mph NW2.3 kmh NW 2.8 mph4.5 kmh 30.37 in1028.4 mb 0.00 in0.0 mm 0.00 in0.0 mm 0.03 in0.8 mm
08:59 AM 34.0°F1.1°C 25.6°F-3.6°C 71% 1.1 mph NNW1.8 kmh NNW 2.5 mph4.0 kmh 30.37 in1028.4 mb 0.00 in0.0 mm 0.00 in0.0 mm 0.02 in0.5 mm
08:54 AM 34.0°F1.1°C 25.6°F-3.6°C 71% Calm Calm -- 30.37 in1028.4 mb 0.00 in0.0 mm 0.00 in0.0 mm 0.02 in0.5 mm
08:49 AM 33.0°F0.6°C 25.3°F-3.7°C 73% 1.3 mph ENE2.1 kmh ENE 2.3 mph3.7 kmh 30.37 in1028.4 mb 0.00 in0.0 mm 0.00 in0.0 mm 0.02 in0.5 mm
08:44 AM 33.0°F0.6°C 25.6°F-3.6°C 74% 0.9 mph NW1.4 kmh NW 1.5 mph2.4 kmh 30.37 in1028.4 mb 0.00 in0.0 mm 0.00 in0.0 mm 0.02 in0.5 mm
08:39 AM 33.0°F0.6°C 26.3°F-3.2°C 76% 0.1 mph NW0.2 kmh NW 0.3 mph0.5 kmh 30.38 in1028.8 mb 0.00 in0.0 mm 0.00 in0.0 mm 0.02 in0.5 mm
08:34 AM 33.0°F0.6°C 26.9°F-2.8°C 78% 1.4 mph NW2.3 kmh NW 2.5 mph4.0 kmh 30.37 in1028.4 mb 0.00 in0.0 mm 0.00 in0.0 mm 0.02 in0.5 mm
08:29 AM 33.0°F0.6°C 27.2°F-2.7°C 79% Calm Calm 0.3 mph0.5 kmh 30.37 in1028.4 mb 0.00 in0.0 mm 0.00 in0.0 mm 0.02 in0.5 mm
08:24 AM 33.0°F0.6°C 27.2°F-2.7°C 79% 0.2 mph E0.3 kmh E 0.5 mph0.8 kmh 30.37 in1028.4 mb 0.00 in0.0 mm 0.00 in0.0 mm 0.02 in0.5 mm
08:19 AM 33.0°F0.6°C 27.5°F-2.5°C 80% Calm Calm -- 30.37 in1028.4 mb 0.00 in0.0 mm 0.00 in0.0 mm 0.02 in0.5 mm
08:14 AM 32.0°F0.0°C 26.8°F-2.9°C 81% 0.1 mph E0.2 kmh E 0.5 mph0.8 kmh 30.37 in1028.4 mb 0.00 in0.0 mm 0.00 in0.0 mm 0.02 in0.5 mm
08:09 AM 32.0°F0.0°C 26.8°F-2.9°C 81% 0.5 mph ESE0.8 kmh ESE 1.3 mph2.1 kmh 30.37 in1028.4 mb 0.00 in0.0 mm 0.00 in0.0 mm 0.02 in0.5 mm
08:04 AM 32.0°F0.0°C 26.8°F-2.9°C 81% Calm Calm -- 30.37 in1028.4 mb 0.00 in0.0 mm 0.00 in0.0 mm 0.02 in0.5 mm
07:59 AM 32.0°F0.0°C 27.1°F-2.7°C 82% Calm Calm -- 30.37 in1028.4 mb 0.00 in0.0 mm 0.00 in0.0 mm 0.02 in0.5 mm
07:54 AM 32.0°F0.0°C 27.4°F-2.6°C 83% Calm Calm -- 30.37 in1028.4 mb 0.00 in0.0 mm 0.00 in0.0 mm 0.02 in0.5 mm
07:49 AM 32.0°F0.0°C 27.4°F-2.6°C 83% Calm Calm -- 30.37 in1028.4 mb 0.00 in0.0 mm 0.00 in0.0 mm 0.02 in0.5 mm
07:44 AM 32.0°F0.0°C 27.1°F-2.7°C 82% 0.2 mph ESE0.3 kmh ESE 0.8 mph1.3 kmh 30.37 in1028.4 mb 0.00 in0.0 mm 0.00 in0.0 mm 0.02 in0.5 mm
07:39 AM 32.0°F0.0°C 26.5°F-3.1°C 80% 0.2 mph ESE0.3 kmh ESE 0.8 mph1.3 kmh 30.37 in1028.4 mb 0.00 in0.0 mm 0.00 in0.0 mm 0.02 in0.5 mm
07:34 AM 32.0°F0.0°C 26.2°F-3.2°C 79% Calm Calm -- 30.36 in1028.1 mb 0.00 in0.0 mm 0.00 in0.0 mm 0.02 in0.5 mm
07:29 AM 32.0°F0.0°C 26.2°F-3.2°C 79% Calm Calm -- 30.36 in1028.1 mb 0.00 in0.0 mm 0.00 in0.0 mm 0.02 in0.5 mm
07:24 AM 31.9°F-0.1°C 25.8°F-3.4°C 78% 1.4 mph ESE2.3 kmh ESE 2.0 mph3.2 kmh 30.37 in1028.4 mb 0.00 in0.0 mm 0.00 in0.0 mm 0.02 in0.5 mm
07:19 AM 32.0°F0.0°C 25.9°F-3.4°C 78% 0.1 mph WNW0.2 kmh WNW 0.3 mph0.5 kmh 30.36 in1028.1 mb 0.00 in0.0 mm 0.00 in0.0 mm 0.02 in0.5 mm
07:14 AM 32.0°F0.0°C 25.3°F-3.7°C 76% Calm Calm -- 30.36 in1028.1 mb 0.00 in0.0 mm 0.00 in0.0 mm 0.02 in0.5 mm
07:09 AM 32.0°F0.0°C 25.0°F-3.9°C 75% Calm Calm -- 30.36 in1028.1 mb 0.00 in0.0 mm 0.00 in0.0 mm 0.02 in0.5 mm
07:04 AM 33.0°F0.6°C 25.6°F-3.6°C 74% Calm Calm -- 30.36 in1028.1 mb 0.00 in0.0 mm 0.00 in0.0 mm 0.02 in0.5 mm
06:59 AM 33.0°F0.6°C 26.0°F-3.3°C 75% Calm Calm -- 30.36 in1028.1 mb 0.00 in0.0 mm 0.00 in0.0 mm 0.02 in0.5 mm
06:54 AM 33.0°F0.6°C 26.0°F-3.3°C 75% Calm Calm -- 30.35 in1027.8 mb 0.00 in0.0 mm 0.00 in0.0 mm 0.02 in0.5 mm
06:49 AM 33.0°F0.6°C 26.3°F-3.2°C 76% Calm Calm -- 30.35 in1027.8 mb 0.00 in0.0 mm 0.00 in0.0 mm 0.02 in0.5 mm
06:44 AM 33.0°F0.6°C 26.6°F-3.0°C 77% 0.5 mph WNW0.8 kmh WNW 1.3 mph2.1 kmh 30.35 in1027.8 mb 0.00 in0.0 mm 0.00 in0.0 mm 0.02 in0.5 mm
06:39 AM 33.0°F0.6°C 27.2°F-2.7°C 79% Calm Calm -- 30.35 in1027.8 mb 0.00 in0.0 mm 0.00 in0.0 mm 0.02 in0.5 mm
06:34 AM 33.0°F0.6°C 27.2°F-2.7°C 79% Calm Calm -- 30.35 in1027.8 mb 0.00 in0.0 mm 0.00 in0.0 mm 0.02 in0.5 mm
06:29 AM 33.0°F0.6°C 27.2°F-2.7°C 79% Calm Calm -- 30.34 in1027.4 mb 0.00 in0.0 mm 0.00 in0.0 mm 0.02 in0.5 mm
06:24 AM 33.0°F0.6°C 27.5°F-2.5°C 80% Calm Calm 0.5 mph0.8 kmh 30.34 in1027.4 mb 0.00 in0.0 mm 0.00 in0.0 mm 0.02 in0.5 mm
06:19 AM 33.0°F0.6°C 27.5°F-2.5°C 80% Calm Calm -- 30.33 in1027.1 mb 0.00 in0.0 mm 0.00 in0.0 mm 0.02 in0.5 mm
06:14 AM 33.0°F0.6°C 27.5°F-2.5°C 80% Calm Calm -- 30.33 in1027.1 mb 0.00 in0.0 mm 0.00 in0.0 mm 0.02 in0.5 mm
06:09 AM 33.0°F0.6°C 27.8°F-2.3°C 81% Calm Calm -- 30.32 in1026.8 mb 0.00 in0.0 mm 0.00 in0.0 mm 0.02 in0.5 mm
06:04 AM 33.0°F0.6°C 27.8°F-2.3°C 81% Calm Calm -- 30.32 in1026.8 mb 0.00 in0.0 mm 0.00 in0.0 mm 0.02 in0.5 mm
05:59 AM 33.0°F0.6°C 27.8°F-2.3°C 81% Calm Calm -- 30.32 in1026.8 mb 0.00 in0.0 mm 0.00 in0.0 mm 0.02 in0.5 mm
05:54 AM 33.0°F0.6°C 28.1°F-2.2°C 82% Calm Calm -- 30.31 in1026.4 mb 0.00 in0.0 mm 0.00 in0.0 mm 0.02 in0.5 mm
05:49 AM 33.0°F0.6°C 28.7°F-1.8°C 84% 0.1 mph N0.2 kmh N 0.5 mph0.8 kmh 30.31 in1026.4 mb 0.00 in0.0 mm 0.00 in0.0 mm 0.02 in0.5 mm
05:44 AM 32.9°F0.5°C 28.6°F-1.9°C 84% Calm Calm 0.3 mph0.5 kmh 30.31 in1026.4 mb 0.00 in0.0 mm 0.00 in0.0 mm 0.02 in0.5 mm
05:39 AM 33.0°F0.6°C 29.0°F-1.7°C 85% Calm Calm 0.3 mph0.5 kmh 30.31 in1026.4 mb 0.00 in0.0 mm 0.00 in0.0 mm 0.02 in0.5 mm
05:34 AM 33.0°F0.6°C 29.3°F-1.5°C 86% Calm Calm -- 30.31 in1026.4 mb 0.00 in0.0 mm 0.00 in0.0 mm 0.02 in0.5 mm
05:29 AM 33.0°F0.6°C 29.6°F-1.3°C 87% Calm Calm -- 30.31 in1026.4 mb 0.00 in0.0 mm 0.00 in0.0 mm 0.02 in0.5 mm
05:24 AM 32.9°F0.5°C 29.5°F-1.4°C 87% Calm Calm -- 30.31 in1026.4 mb 0.00 in0.0 mm 0.00 in0.0 mm 0.02 in0.5 mm
05:19 AM 33.0°F0.6°C 30.1°F-1.1°C 89% 0.1 mph N0.2 kmh N 0.8 mph1.3 kmh 30.31 in1026.4 mb 0.00 in0.0 mm 0.00 in0.0 mm 0.02 in0.5 mm
05:14 AM 32.2°F0.1°C 29.3°F-1.5°C 89% Calm Calm 0.3 mph0.5 kmh 30.30 in1026.1 mb 0.00 in0.0 mm 0.00 in0.0 mm 0.02 in0.5 mm
05:09 AM 32.0°F0.0°C 29.4°F-1.4°C 90% Calm Calm -- 30.30 in1026.1 mb 0.00 in0.0 mm 0.00 in0.0 mm 0.02 in0.5 mm
05:04 AM 32.0°F0.0°C 29.4°F-1.4°C 90% Calm Calm -- 30.30 in1026.1 mb 0.00 in0.0 mm 0.00 in0.0 mm 0.02 in0.5 mm
04:59 AM 32.0°F0.0°C 29.4°F-1.4°C 90% Calm Calm -- 30.30 in1026.1 mb 0.00 in0.0 mm 0.00 in0.0 mm 0.02 in0.5 mm
04:54 AM 32.0°F0.0°C 29.7°F-1.3°C 91% Calm Calm -- 30.30 in1026.1 mb 0.00 in0.0 mm 0.00 in0.0 mm 0.02 in0.5 mm
04:49 AM 32.0°F0.0°C 29.7°F-1.3°C 91% Calm Calm -- 30.29 in1025.7 mb 0.00 in0.0 mm 0.00 in0.0 mm 0.02 in0.5 mm
04:44 AM 32.0°F0.0°C 29.4°F-1.4°C 90% Calm Calm -- 30.29 in1025.7 mb 0.00 in0.0 mm 0.00 in0.0 mm 0.02 in0.5 mm
04:39 AM 31.9°F-0.1°C 29.0°F-1.7°C 89% Calm Calm -- 30.29 in1025.7 mb 0.00 in0.0 mm 0.00 in0.0 mm 0.02 in0.5 mm
04:34 AM 32.0°F0.0°C 29.4°F-1.4°C 90% Calm Calm -- 30.28 in1025.4 mb 0.00 in0.0 mm 0.00 in0.0 mm 0.02 in0.5 mm
04:29 AM 33.0°F0.6°C 30.4°F-0.9°C 90% Calm Calm -- 30.28 in1025.4 mb 0.00 in0.0 mm 0.00 in0.0 mm 0.01 in0.3 mm
04:24 AM 33.0°F0.6°C 30.4°F-0.9°C 90% Calm Calm -- 30.28 in1025.4 mb 0.00 in0.0 mm 0.00 in0.0 mm 0.01 in0.3 mm
04:19 AM 33.0°F0.6°C 30.4°F-0.9°C 90% Calm Calm -- 30.28 in1025.4 mb 0.00 in0.0 mm 0.00 in0.0 mm 0.01 in0.3 mm
04:14 AM 33.0°F0.6°C 30.1°F-1.1°C 89% Calm Calm -- 30.27 in1025.1 mb 0.00 in0.0 mm 0.00 in0.0 mm 0.01 in0.3 mm
04:09 AM 33.0°F0.6°C 30.1°F-1.1°C 89% Calm Calm -- 30.27 in1025.1 mb 0.00 in0.0 mm 0.00 in0.0 mm 0.01 in0.3 mm
04:04 AM 33.0°F0.6°C 30.1°F-1.1°C 89% Calm Calm -- 30.27 in1025.1 mb 0.00 in0.0 mm 0.00 in0.0 mm 0.01 in0.3 mm
03:59 AM 33.0°F0.6°C 30.1°F-1.1°C 89% Calm Calm -- 30.27 in1025.1 mb 0.00 in0.0 mm 0.00 in0.0 mm 0.01 in0.3 mm
03:54 AM 33.0°F0.6°C 30.1°F-1.1°C 89% 0.5 mph WSW0.8 kmh WSW 0.8 mph1.3 kmh 30.27 in1025.1 mb 0.00 in0.0 mm 0.00 in0.0 mm 0.01 in0.3 mm
03:49 AM 33.0°F0.6°C 29.8°F-1.2°C 88% Calm Calm 0.3 mph0.5 kmh 30.26 in1024.7 mb 0.00 in0.0 mm 0.00 in0.0 mm 0.01 in0.3 mm
03:44 AM 33.0°F0.6°C 29.8°F-1.2°C 88% Calm Calm -- 30.27 in1025.1 mb 0.00 in0.0 mm 0.00 in0.0 mm 0.01 in0.3 mm
03:39 AM 33.0°F0.6°C 29.8°F-1.2°C 88% Calm Calm -- 30.26 in1024.7 mb 0.00 in0.0 mm 0.00 in0.0 mm 0.01 in0.3 mm
03:34 AM 33.0°F0.6°C 29.8°F-1.2°C 88% Calm Calm -- 30.26 in1024.7 mb 0.00 in0.0 mm 0.00 in0.0 mm 0.01 in0.3 mm
03:29 AM 32.9°F0.5°C 29.5°F-1.4°C 87% Calm Calm -- 30.26 in1024.7 mb 0.00 in0.0 mm 0.00 in0.0 mm 0.01 in0.3 mm
03:24 AM 33.0°F0.6°C 29.8°F-1.2°C 88% Calm Calm -- 30.26 in1024.7 mb 0.00 in0.0 mm 0.00 in0.0 mm 0.01 in0.3 mm
03:19 AM 33.0°F0.6°C 29.6°F-1.3°C 87% Calm Calm -- 30.26 in1024.7 mb 0.00 in0.0 mm 0.00 in0.0 mm 0.01 in0.3 mm
03:14 AM 33.0°F0.6°C 29.6°F-1.3°C 87% Calm Calm -- 30.26 in1024.7 mb 0.00 in0.0 mm 0.00 in0.0 mm 0.01 in0.3 mm
03:09 AM 33.0°F0.6°C 29.6°F-1.3°C 87% Calm Calm -- 30.26 in1024.7 mb 0.00 in0.0 mm 0.00 in0.0 mm 0.01 in0.3 mm
03:04 AM 33.0°F0.6°C 29.6°F-1.3°C 87% Calm Calm -- 30.26 in1024.7 mb 0.00 in0.0 mm 0.00 in0.0 mm 0.01 in0.3 mm
02:59 AM 33.0°F0.6°C 29.3°F-1.5°C 86% Calm Calm -- 30.25 in1024.4 mb 0.00 in0.0 mm 0.00 in0.0 mm 0.01 in0.3 mm
02:54 AM 33.0°F0.6°C 29.3°F-1.5°C 86% Calm Calm 0.8 mph1.3 kmh 30.25 in1024.4 mb 0.00 in0.0 mm 0.00 in0.0 mm 0.01 in0.3 mm
02:49 AM 33.0°F0.6°C 29.3°F-1.5°C 86% Calm Calm -- 30.25 in1024.4 mb 0.00 in0.0 mm 0.00 in0.0 mm 0.01 in0.3 mm
02:44 AM 34.0°F1.1°C 30.3°F-0.9°C 86% Calm Calm -- 30.26 in1024.7 mb 0.00 in0.0 mm 0.00 in0.0 mm 0.01 in0.3 mm
02:39 AM 34.0°F1.1°C 30.3°F-0.9°C 86% Calm Calm -- 30.25 in1024.4 mb 0.00 in0.0 mm 0.00 in0.0 mm 0.01 in0.3 mm
02:34 AM 34.0°F1.1°C 30.3°F-0.9°C 86% Calm Calm -- 30.25 in1024.4 mb 0.00 in0.0 mm 0.00 in0.0 mm 0.01 in0.3 mm
02:29 AM 34.0°F1.1°C 30.3°F-0.9°C 86% Calm Calm -- 30.25 in1024.4 mb 0.00 in0.0 mm 0.00 in0.0 mm 0.01 in0.3 mm
02:24 AM 34.0°F1.1°C 30.0°F-1.1°C 85% Calm Calm 0.3 mph0.5 kmh 30.25 in1024.4 mb 0.00 in0.0 mm 0.00 in0.0 mm 0.01 in0.3 mm
02:19 AM 34.0°F1.1°C 30.0°F-1.1°C 85% 0.1 mph WSW0.2 kmh WSW 1.0 mph1.6 kmh 30.25 in1024.4 mb 0.00 in0.0 mm 0.00 in0.0 mm 0.01 in0.3 mm
02:14 AM 34.0°F1.1°C 30.0°F-1.1°C 85% 0.1 mph WSW0.2 kmh WSW 0.5 mph0.8 kmh 30.25 in1024.4 mb 0.00 in0.0 mm 0.00 in0.0 mm 0.01 in0.3 mm
02:09 AM 34.0°F1.1°C 30.0°F-1.1°C 85% Calm Calm -- 30.25 in1024.4 mb 0.00 in0.0 mm 0.00 in0.0 mm 0.01 in0.3 mm
02:04 AM 34.0°F1.1°C 30.0°F-1.1°C 85% Calm Calm -- 30.25 in1024.4 mb 0.00 in0.0 mm 0.00 in0.0 mm 0.01 in0.3 mm
01:59 AM 34.0°F1.1°C 30.0°F-1.1°C 85% Calm Calm -- 30.25 in1024.4 mb 0.00 in0.0 mm 0.00 in0.0 mm 0.01 in0.3 mm
01:54 AM 34.0°F1.1°C 30.0°F-1.1°C 85% Calm Calm -- 30.25 in1024.4 mb 0.00 in0.0 mm 0.00 in0.0 mm 0.01 in0.3 mm
01:49 AM 34.0°F1.1°C 30.0°F-1.1°C 85% Calm Calm -- 30.24 in1024.0 mb 0.00 in0.0 mm 0.00 in0.0 mm 0.01 in0.3 mm
01:44 AM 34.0°F1.1°C 30.0°F-1.1°C 85% Calm Calm -- 30.24 in1024.0 mb 0.00 in0.0 mm 0.00 in0.0 mm 0.01 in0.3 mm
01:39 AM 34.0°F1.1°C 30.0°F-1.1°C 85% Calm Calm -- 30.24 in1024.0 mb 0.00 in0.0 mm 0.00 in0.0 mm 0.01 in0.3 mm
01:34 AM 34.0°F1.1°C 30.0°F-1.1°C 85% Calm Calm -- 30.24 in1024.0 mb 0.00 in0.0 mm 0.00 in0.0 mm 0.01 in0.3 mm
01:29 AM 34.0°F1.1°C 29.7°F-1.3°C 84% 0.4 mph WSW0.6 kmh WSW 1.5 mph2.4 kmh 30.24 in1024.0 mb 0.00 in0.0 mm 0.00 in0.0 mm 0.01 in0.3 mm
01:24 AM 34.0°F1.1°C 29.7°F-1.3°C 84% Calm Calm -- 30.24 in1024.0 mb 0.00 in0.0 mm 0.00 in0.0 mm 0.00 in0.0 mm
01:19 AM 34.0°F1.1°C 29.4°F-1.4°C 83% Calm Calm -- 30.23 in1023.7 mb 0.00 in0.0 mm 0.00 in0.0 mm 0.00 in0.0 mm
01:14 AM 34.0°F1.1°C 29.4°F-1.4°C 83% Calm Calm -- 30.24 in1024.0 mb 0.00 in0.0 mm 0.00 in0.0 mm 0.00 in0.0 mm
01:09 AM 34.0°F1.1°C 29.4°F-1.4°C 83% 0.4 mph WSW0.6 kmh WSW 1.5 mph2.4 kmh 30.23 in1023.7 mb 0.00 in0.0 mm 0.00 in0.0 mm 0.00 in0.0 mm
01:04 AM 34.0°F1.1°C 29.1°F-1.6°C 82% 0.7 mph WSW1.1 kmh WSW 1.8 mph2.9 kmh 30.23 in1023.7 mb 0.00 in0.0 mm 0.00 in0.0 mm 0.00 in0.0 mm
12:59 AM 34.0°F1.1°C 29.1°F-1.6°C 82% 0.7 mph WSW1.1 kmh WSW 1.5 mph2.4 kmh 30.23 in1023.7 mb 0.00 in0.0 mm 0.00 in0.0 mm 0.00 in0.0 mm
12:54 AM 34.0°F1.1°C 28.8°F-1.8°C 81% 0.5 mph WSW0.8 kmh WSW 1.0 mph1.6 kmh 30.23 in1023.7 mb 0.00 in0.0 mm 0.00 in0.0 mm 0.00 in0.0 mm
12:49 AM 35.0°F1.7°C 29.5°F-1.4°C 80% 0.4 mph WSW0.6 kmh WSW 1.3 mph2.1 kmh 30.23 in1023.7 mb 0.00 in0.0 mm 0.00 in0.0 mm 0.00 in0.0 mm
12:44 AM 35.0°F1.7°C 29.5°F-1.4°C 80% 0.2 mph WSW0.3 kmh WSW 0.5 mph0.8 kmh 30.23 in1023.7 mb 0.00 in0.0 mm 0.00 in0.0 mm 0.00 in0.0 mm
12:39 AM 35.0°F1.7°C 29.2°F-1.6°C 79% 0.2 mph WSW0.3 kmh WSW 0.8 mph1.3 kmh 30.23 in1023.7 mb 0.00 in0.0 mm 0.00 in0.0 mm 0.00 in0.0 mm
12:34 AM 35.0°F1.7°C 29.2°F-1.6°C 79% 1.2 mph WSW1.9 kmh WSW 3.0 mph4.8 kmh 30.23 in1023.7 mb 0.00 in0.0 mm 0.00 in0.0 mm 0.00 in0.0 mm
12:29 AM 34.9°F1.6°C 28.8°F-1.8°C 78% 1.4 mph WSW2.3 kmh WSW 2.5 mph4.0 kmh 30.23 in1023.7 mb 0.00 in0.0 mm 0.00 in0.0 mm 0.00 in0.0 mm
12:24 AM 35.0°F1.7°C 29.2°F-1.6°C 79% 1.1 mph WSW1.8 kmh WSW 2.3 mph3.7 kmh 30.23 in1023.7 mb 0.00 in0.0 mm 0.00 in0.0 mm 0.00 in0.0 mm
12:19 AM 35.0°F1.7°C 29.2°F-1.6°C 79% 1.4 mph WSW2.3 kmh WSW 2.0 mph3.2 kmh 30.23 in1023.7 mb 0.00 in0.0 mm 0.00 in0.0 mm 0.00 in0.0 mm
12:14 AM 35.0°F1.7°C 28.8°F-1.8°C 78% 1.3 mph WSW2.1 kmh WSW 2.0 mph3.2 kmh 30.22 in1023.4 mb 0.00 in0.0 mm 0.00 in0.0 mm 0.00 in0.0 mm
12:09 AM 35.0°F1.7°C 28.8°F-1.8°C 78% 1.8 mph WSW2.9 kmh WSW 3.0 mph4.8 kmh 30.22 in1023.4 mb 0.00 in0.0 mm 0.00 in0.0 mm 0.00 in0.0 mm
12:04 AM 35.0°F1.7°C 29.2°F-1.6°C 79% 1.1 mph W1.8 kmh W 2.5 mph4.0 kmh 30.22 in1023.4 mb 0.00 in0.0 mm 0.00 in0.0 mm 0.00 in0.0 mm